createdAt,value
2023-02-06T00:03:21.461Z,30.25
2023-02-06T00:07:22.924Z,28.98
2023-02-06T00:11:24.526Z,30.90
2023-02-06T00:15:26.094Z,29.38
2023-02-06T00:19:28.226Z,31.20
2023-02-06T00:23:29.699Z,32.38
2023-02-06T00:27:31.684Z,33.55
2023-02-06T00:31:33.492Z,36.05
2023-02-06T00:35:35.489Z,33.22
2023-02-06T00:39:37.640Z,32.05
2023-02-06T00:43:39.156Z,35.97
2023-02-06T00:47:40.632Z,33.10
2023-02-06T00:51:42.413Z,37.88
2023-02-06T00:55:44.054Z,36.45
2023-02-06T00:59:45.513Z,31.48
2023-02-06T01:03:47.192Z,37.13
2023-02-06T01:07:48.943Z,35.40
2023-02-06T01:11:50.539Z,34.92
2023-02-06T01:15:53.073Z,33.03
2023-02-06T01:19:54.623Z,34.05
2023-02-06T01:23:56.570Z,38.03
2023-02-06T01:27:58.902Z,33.70
2023-02-06T01:32:01.867Z,36.10
2023-02-06T01:36:03.431Z,35.45
2023-02-06T01:40:07.292Z,37.17
2023-02-06T01:44:19.849Z,37.08
2023-02-06T01:48:28.223Z,39.42
2023-02-06T01:52:31.198Z,36.63
2023-02-06T01:56:40.569Z,35.10
2023-02-06T02:00:42.283Z,36.70
2023-02-06T02:04:44.425Z,35.90
2023-02-06T02:08:47.765Z,36.03
2023-02-06T02:12:49.632Z,39.25
2023-02-06T02:17:16.158Z,40.25
2023-02-06T02:21:38.256Z,43.93
2023-02-06T02:26:09.000Z,44.95
2023-02-06T02:30:20.708Z,44.33
2023-02-06T02:34:37.805Z,46.20
2023-02-06T02:38:53.706Z,45.20
2023-02-06T02:43:22.432Z,45.97
2023-02-06T02:47:28.806Z,51.47
2023-02-06T02:51:30.260Z,45.92
2023-02-06T02:55:32.122Z,45.22
2023-02-06T02:59:39.654Z,71.70
2023-02-06T03:03:41.699Z,50.17
2023-02-06T03:08:16.817Z,67.10
2023-02-06T03:12:34.764Z,73.97
2023-02-06T03:16:48.830Z,90.20
2023-02-06T03:20:51.604Z,72.28
2023-02-06T03:24:54.238Z,60.25
2023-02-06T03:29:06.982Z,81.07
2023-02-06T03:33:11.882Z,59.97
2023-02-06T03:37:14.205Z,68.85
2023-02-06T03:41:17.446Z,57.05
2023-02-06T03:45:24.692Z,59.58
2023-02-06T03:49:29.174Z,62.35
2023-02-06T03:53:32.959Z,49.97
2023-02-06T03:57:35.741Z,51.13
2023-02-06T04:01:43.684Z,47.75
2023-02-06T04:05:45.186Z,44.00
2023-02-06T04:09:46.642Z,47.78
2023-02-06T04:13:48.109Z,55.03
2023-02-06T04:17:59.870Z,53.00
2023-02-06T04:22:02.680Z,49.60
2023-02-06T04:26:04.703Z,42.35
2023-02-06T04:30:07.028Z,44.50
2023-02-06T04:34:08.636Z,43.53
2023-02-06T04:38:10.131Z,43.25
2023-02-06T04:42:11.997Z,51.20
2023-02-06T04:46:13.952Z,49.70
2023-02-06T04:50:15.849Z,50.25
2023-02-06T04:54:17.844Z,47.08
2023-02-06T04:58:19.625Z,46.15
2023-02-06T05:02:21.536Z,50.00
2023-02-06T05:06:23.040Z,49.92
2023-02-06T05:10:24.597Z,51.80
2023-02-06T05:14:26.708Z,48.25
2023-02-06T05:18:28.355Z,48.17
2023-02-06T05:22:29.996Z,48.35
2023-02-06T05:26:32.646Z,52.58
2023-02-06T05:30:35.120Z,50.15
2023-02-06T05:34:36.837Z,45.97
2023-02-06T05:38:38.536Z,49.08
2023-02-06T05:42:40.246Z,45.53
2023-02-06T05:46:42.607Z,49.88
2023-02-06T05:50:44.152Z,50.33
2023-02-06T05:54:45.958Z,46.85
2023-02-06T05:58:47.686Z,45.35
2023-02-06T06:02:49.436Z,45.20
2023-02-06T06:06:50.950Z,44.65
2023-02-06T06:10:52.512Z,46.15
2023-02-06T06:14:54.625Z,46.00
2023-02-06T06:18:56.394Z,45.33
2023-02-06T06:23:00.989Z,44.75
2023-02-06T06:27:03.969Z,43.53
2023-02-06T06:31:08.315Z,39.08
2023-02-06T06:35:09.932Z,41.67
2023-02-06T06:39:11.989Z,41.83
2023-02-06T06:43:14.121Z,40.05
2023-02-06T06:47:15.825Z,39.33
2023-02-06T06:51:17.382Z,42.40
2023-02-06T06:55:20.626Z,41.30
2023-02-06T06:59:22.494Z,37.67
2023-02-06T07:03:24.576Z,39.22
2023-02-06T07:07:26.484Z,36.75
2023-02-06T07:11:28.161Z,37.17
2023-02-06T07:15:29.978Z,34.30
2023-02-06T07:19:31.459Z,33.80
2023-02-06T07:23:33.275Z,30.73
2023-02-06T07:27:34.685Z,27.42
2023-02-06T07:31:36.511Z,31.23
2023-02-06T07:35:38.407Z,29.17
2023-02-06T07:39:40.042Z,28.92
2023-02-06T07:43:41.736Z,27.27
2023-02-06T07:47:43.974Z,29.02
2023-02-06T07:51:46.060Z,27.02
2023-02-06T07:55:47.642Z,27.48
2023-02-06T07:59:49.074Z,25.88
2023-02-06T08:03:54.940Z,25.83
2023-02-06T08:07:57.157Z,24.67
2023-02-06T08:11:59.365Z,20.77
2023-02-06T08:16:10.776Z,24.30
2023-02-06T08:20:12.662Z,23.90
2023-02-06T08:24:14.519Z,22.45
2023-02-06T08:28:17.204Z,21.92
2023-02-06T08:32:19.301Z,19.83
2023-02-06T08:36:21.725Z,20.90
2023-02-06T08:40:23.853Z,19.65
2023-02-06T08:44:26.189Z,19.95
2023-02-06T08:48:27.644Z,21.65
2023-02-06T08:52:29.196Z,19.63
2023-02-06T08:56:31.710Z,17.95
2023-02-06T09:00:33.678Z,18.15
2023-02-06T09:04:37.827Z,16.05
2023-02-06T09:08:40.323Z,16.40
2023-02-06T09:12:42.084Z,15.27
2023-02-06T09:16:43.708Z,16.55
2023-02-06T09:20:48.627Z,14.15
2023-02-06T09:24:50.108Z,14.27
2023-02-06T09:28:53.063Z,13.68
2023-02-06T09:32:54.938Z,14.10
2023-02-06T09:36:58.053Z,12.77
2023-02-06T09:41:03.237Z,12.20
2023-02-06T09:45:18.173Z,10.18
2023-02-06T09:49:30.854Z,11.98
2023-02-06T09:53:35.617Z,11.60
2023-02-06T09:58:00.233Z,12.88
2023-02-06T10:02:12.116Z,13.30
2023-02-06T10:06:27.031Z,14.77
2023-02-06T10:10:42.422Z,13.15
2023-02-06T10:14:44.902Z,13.38
2023-02-06T10:18:49.950Z,11.70
2023-02-06T10:23:02.607Z,10.77
2023-02-06T10:27:09.476Z,10.38
2023-02-06T10:31:26.491Z,8.70
2023-02-06T10:35:58.135Z,8.00
2023-02-06T10:40:03.450Z,7.47
2023-02-06T10:44:08.164Z,5.90
2023-02-06T10:48:39.189Z,6.25
2023-02-06T10:52:41.999Z,6.82
2023-02-06T10:56:45.537Z,5.07
2023-02-06T11:00:48.341Z,5.97
2023-02-06T11:05:04.057Z,5.20
2023-02-06T11:09:06.254Z,6.60
2023-02-06T11:13:21.724Z,4.57
2023-02-06T11:17:28.412Z,5.47
2023-02-06T11:21:41.820Z,5.53
2023-02-06T11:25:44.140Z,6.30
2023-02-06T11:29:51.014Z,4.90
2023-02-06T11:33:56.776Z,4.90
2023-02-06T11:38:16.850Z,3.55
2023-02-06T11:42:19.923Z,4.72
2023-02-06T11:46:30.160Z,5.20
2023-02-06T11:50:34.925Z,5.72
2023-02-06T11:54:36.733Z,5.60
2023-02-06T11:58:38.238Z,4.57
2023-02-06T12:02:39.852Z,4.78
2023-02-06T12:06:42.155Z,3.70
2023-02-06T12:10:56.195Z,3.92
2023-02-06T12:15:36.270Z,4.43
2023-02-06T12:19:45.035Z,4.75
2023-02-06T12:23:54.831Z,3.88
2023-02-06T12:28:09.174Z,3.83
2023-02-06T12:32:19.939Z,4.88
2023-02-06T12:36:27.917Z,6.28
2023-02-06T12:40:39.656Z,6.10
2023-02-06T12:45:06.212Z,5.82
2023-02-06T12:49:21.636Z,7.20
2023-02-06T12:53:36.028Z,6.38
2023-02-06T12:57:38.836Z,5.93
2023-02-06T13:01:52.875Z,7.15
2023-02-06T13:06:12.593Z,7.30
2023-02-06T13:10:19.387Z,7.53
2023-02-06T13:14:26.214Z,7.75
2023-02-06T13:18:53.406Z,7.55
2023-02-06T13:23:14.905Z,5.75
2023-02-06T13:27:23.946Z,7.43
2023-02-06T13:31:27.747Z,7.30
2023-02-06T13:35:31.073Z,5.32
2023-02-06T13:39:33.480Z,5.85
2023-02-06T13:43:39.446Z,5.75
2023-02-06T13:48:08.870Z,6.40
2023-02-06T13:52:33.977Z,5.03
2023-02-06T13:56:59.059Z,4.30
2023-02-06T14:01:01.404Z,3.83
2023-02-06T14:05:05.284Z,5.03
2023-02-06T14:09:51.996Z,4.18
2023-02-06T14:14:28.858Z,3.90
2023-02-06T14:19:04.646Z,3.85
2023-02-06T14:23:15.038Z,4.07
2023-02-06T14:27:41.650Z,4.22
2023-02-06T14:32:04.206Z,3.88
2023-02-06T14:36:34.751Z,3.97
2023-02-06T14:40:43.097Z,4.10
2023-02-06T14:44:50.848Z,5.13
2023-02-06T14:48:55.853Z,3.90
2023-02-06T14:53:07.650Z,4.53
2023-02-06T14:57:28.092Z,4.65
2023-02-06T15:01:32.585Z,4.30
2023-02-06T15:05:34.717Z,4.03
2023-02-06T15:09:39.333Z,4.93
2023-02-06T15:13:50.372Z,3.90
2023-02-06T15:18:15.663Z,3.78
2023-02-06T15:22:23.236Z,7.15
2023-02-06T15:26:35.546Z,7.65
2023-02-06T15:30:37.890Z,4.70
2023-02-06T15:34:39.639Z,4.28
2023-02-06T15:38:43.670Z,3.63
2023-02-06T15:42:47.047Z,4.43
2023-02-06T15:46:49.845Z,3.63
2023-02-06T15:51:00.245Z,4.13
2023-02-06T15:55:02.291Z,4.30
2023-02-06T15:59:06.642Z,4.22
2023-02-06T16:03:16.351Z,4.20
2023-02-06T16:07:20.600Z,4.03
2023-02-06T16:11:47.592Z,4.53
2023-02-06T16:16:05.530Z,6.88
2023-02-06T16:20:28.675Z,6.65
2023-02-06T16:24:30.249Z,6.68
2023-02-06T16:28:31.710Z,4.80
2023-02-06T16:32:34.829Z,4.40
2023-02-06T16:36:36.299Z,5.65
2023-02-06T16:40:38.283Z,7.10
2023-02-06T16:44:45.316Z,9.77
2023-02-06T16:48:49.507Z,6.20
2023-02-06T16:52:53.604Z,7.75
2023-02-06T16:56:57.675Z,4.45
2023-02-06T17:00:59.702Z,4.57
2023-02-06T17:05:02.013Z,4.05
2023-02-06T17:09:09.252Z,3.30
2023-02-06T17:13:17.653Z,4.00
2023-02-06T18:36:26.588Z,6.70
2023-02-06T18:40:30.518Z,6.47
2023-02-06T18:44:31.995Z,4.40
2023-02-06T18:48:33.513Z,4.82
2023-02-06T18:52:35.240Z,4.32
2023-02-06T18:56:39.579Z,4.78
2023-02-06T19:00:42.614Z,5.32
2023-02-06T19:04:44.210Z,4.20
2023-02-06T19:08:46.800Z,4.57
2023-02-06T19:12:48.708Z,4.55
2023-02-06T19:16:51.344Z,4.45
2023-02-06T19:20:52.759Z,5.25
2023-02-06T19:24:54.299Z,4.68
2023-02-06T19:28:57.002Z,5.80
2023-02-06T19:32:59.034Z,5.68
2023-02-06T19:37:03.224Z,5.55
2023-02-06T19:41:09.145Z,5.90
2023-02-06T19:45:10.842Z,6.72
2023-02-06T19:49:13.082Z,6.80
2023-02-06T19:53:16.863Z,7.30
2023-02-06T19:57:19.466Z,7.70
2023-02-06T20:01:20.986Z,6.70
2023-02-06T20:05:27.090Z,7.15
2023-02-06T20:09:29.794Z,8.38
2023-02-06T20:13:31.522Z,7.97
2023-02-06T20:17:33.348Z,6.45
2023-02-06T20:21:39.423Z,7.53
2023-02-06T20:25:41.332Z,7.60
2023-02-06T20:29:43.375Z,7.30
2023-02-06T20:33:45.372Z,7.13
2023-02-06T20:37:48.892Z,9.63
2023-02-06T20:41:51.114Z,10.93
2023-02-06T20:45:52.985Z,8.00
2023-02-06T20:49:56.088Z,8.60
2023-02-06T20:53:58.352Z,7.78
2023-02-06T20:58:00.952Z,9.18
2023-02-06T21:02:02.884Z,8.13
2023-02-06T21:06:04.832Z,9.23
2023-02-06T21:10:06.881Z,8.93
2023-02-06T21:14:09.156Z,7.50
2023-02-06T21:18:10.920Z,8.60
2023-02-06T21:22:12.752Z,8.45
2023-02-06T21:26:17.502Z,7.75
2023-02-06T21:30:19.013Z,8.40
2023-02-06T21:34:23.053Z,8.80
2023-02-06T21:38:24.952Z,9.15
2023-02-06T21:42:27.611Z,7.30
2023-02-06T21:46:31.173Z,7.03
2023-02-06T21:50:33.411Z,6.78
2023-02-06T21:54:34.962Z,8.65
2023-02-06T21:58:39.242Z,7.60
2023-02-06T22:02:40.949Z,7.20
2023-02-06T22:06:43.679Z,13.85
2023-02-06T22:10:50.758Z,10.25
2023-02-06T22:14:52.830Z,8.27
2023-02-06T22:18:55.305Z,7.90
2023-02-06T22:22:57.124Z,8.70
2023-02-06T22:27:00.995Z,7.30
2023-02-06T22:31:11.307Z,8.55
2023-02-06T22:35:13.295Z,8.25
2023-02-06T22:39:25.722Z,8.43
2023-02-06T22:43:40.819Z,9.02
2023-02-06T22:47:48.494Z,8.20
2023-02-06T22:56:29.576Z,9.95
2023-02-06T23:00:31.308Z,8.27
2023-02-06T23:04:36.599Z,9.82
2023-02-06T23:08:38.843Z,10.00
2023-02-06T23:12:40.332Z,9.60
2023-02-06T23:16:42.937Z,9.32
2023-02-06T23:20:44.582Z,9.10
2023-02-06T23:24:46.708Z,7.75
2023-02-06T23:28:48.202Z,7.75
2023-02-06T23:32:51.071Z,5.88
2023-02-06T23:36:52.996Z,7.00
2023-02-06T23:40:54.829Z,7.10
2023-02-06T23:44:56.735Z,6.55
2023-02-06T23:48:58.657Z,7.30
2023-02-06T23:53:00.194Z,8.55
2023-02-06T23:57:02.029Z,6.70
